sensor_id;sensor_type;location;lat;lon;timestamp;pressure;altitude;pressure_sealevel;temperature;humidity
74529;BME280;63009;52.584;5.932;2023-08-31T00:00:29;100679.56;;;12.29;100.00
74529;BME280;63009;52.584;5.932;2023-08-31T00:02:55;100680.72;;;12.25;100.00
74529;BME280;63009;52.584;5.932;2023-08-31T00:05:20;100683.69;;;12.33;100.00
74529;BME280;63009;52.584;5.932;2023-08-31T00:07:45;100679.34;;;12.32;100.00
74529;BME280;63009;52.584;5.932;2023-08-31T00:10:11;100676.69;;;12.32;100.00
74529;BME280;63009;52.584;5.932;2023-08-31T00:12:37;100655.38;;;12.21;100.00
74529;BME280;63009;52.584;5.932;2023-08-31T00:15:03;100666.72;;;12.23;100.00
74529;BME280;63009;52.584;5.932;2023-08-31T00:17:30;100677.19;;;12.24;100.00
74529;BME280;63009;52.584;5.932;2023-08-31T00:19:55;100676.56;;;12.21;100.00
74529;BME280;63009;52.584;5.932;2023-08-31T00:22:20;100677.41;;;12.21;100.00
74529;BME280;63009;52.584;5.932;2023-08-31T00:24:46;100672.53;;;12.15;100.00
74529;BME280;63009;52.584;5.932;2023-08-31T00:27:11;100673.38;;;12.15;100.00
74529;BME280;63009;52.584;5.932;2023-08-31T00:29:39;100691.19;;;12.13;100.00
74529;BME280;63009;52.584;5.932;2023-08-31T00:32:05;100684.19;;;12.12;100.00
74529;BME280;63009;52.584;5.932;2023-08-31T00:34:30;100685.91;;;12.13;100.00
74529;BME280;63009;52.584;5.932;2023-08-31T00:36:56;100675.69;;;12.07;100.00
74529;BME280;63009;52.584;5.932;2023-08-31T00:39:21;100673.47;;;12.01;100.00
74529;BME280;63009;52.584;5.932;2023-08-31T00:41:47;100677.06;;;12.00;100.00
74529;BME280;63009;52.584;5.932;2023-08-31T00:44:12;100683.31;;;11.99;100.00
74529;BME280;63009;52.584;5.932;2023-08-31T00:46:37;100673.47;;;12.01;100.00
74529;BME280;63009;52.584;5.932;2023-08-31T00:49:03;100655.13;;;11.98;100.00
74529;BME280;63009;52.584;5.932;2023-08-31T00:51:29;100667.44;;;11.99;100.00
74529;BME280;63009;52.584;5.932;2023-08-31T00:53:55;100655.84;;;11.87;100.00
74529;BME280;63009;52.584;5.932;2023-08-31T00:56:20;100651.31;;;11.89;100.00
74529;BME280;63009;52.584;5.932;2023-08-31T00:58:46;100648.47;;;11.78;100.00
74529;BME280;63009;52.584;5.932;2023-08-31T01:01:36;100644.91;;;11.79;100.00
74529;BME280;63009;52.584;5.932;2023-08-31T01:04:10;100641.31;;;11.80;100.00
74529;BME280;63009;52.584;5.932;2023-08-31T01:06:53;100637.25;;;11.75;100.00
74529;BME280;63009;52.584;5.932;2023-08-31T01:09:57;100626.66;;;11.75;100.00
74529;BME280;63009;52.584;5.932;2023-08-31T01:12:40;100624.97;;;11.74;100.00
74529;BME280;63009;52.584;5.932;2023-08-31T01:15:11;100624.13;;;11.73;100.00
74529;BME280;63009;52.584;5.932;2023-08-31T01:17:44;100619.66;;;11.74;100.00
74529;BME280;63009;52.584;5.932;2023-08-31T01:20:14;100629.31;;;11.75;100.00
74529;BME280;63009;52.584;5.932;2023-08-31T01:22:55;100631.41;;;11.70;100.00
74529;BME280;63009;52.584;5.932;2023-08-31T01:25:21;100628.41;;;11.62;100.00
74529;BME280;63009;52.584;5.932;2023-08-31T01:27:46;100634.47;;;11.64;100.00
74529;BME280;63009;52.584;5.932;2023-08-31T01:30:12;100633.81;;;11.60;100.00
74529;BME280;63009;52.584;5.932;2023-08-31T01:32:37;100621.97;;;11.66;100.00
74529;BME280;63009;52.584;5.932;2023-08-31T01:35:10;100620.91;;;11.55;100.00
74529;BME280;63009;52.584;5.932;2023-08-31T01:37:45;100627.69;;;11.59;100.00
74529;BME280;63009;52.584;5.932;2023-08-31T01:40:17;100626.56;;;11.49;100.00
74529;BME280;63009;52.584;5.932;2023-08-31T01:42:46;100623.59;;;11.41;100.00
74529;BME280;63009;52.584;5.932;2023-08-31T01:45:14;100616.34;;;11.30;100.00
74529;BME280;63009;52.584;5.932;2023-08-31T01:47:40;100612.69;;;11.19;100.00
74529;BME280;63009;52.584;5.932;2023-08-31T01:50:06;100618.00;;;11.19;100.00
74529;BME280;63009;52.584;5.932;2023-08-31T01:52:31;100615.25;;;11.20;100.00
74529;BME280;63009;52.584;5.932;2023-08-31T01:54:56;100604.88;;;11.17;100.00
74529;BME280;63009;52.584;5.932;2023-08-31T01:57:21;100599.09;;;11.11;100.00
74529;BME280;63009;52.584;5.932;2023-08-31T01:59:47;100597.72;;;11.05;100.00
74529;BME280;63009;52.584;5.932;2023-08-31T02:02:12;100605.91;;;11.15;100.00
74529;BME280;63009;52.584;5.932;2023-08-31T02:04:37;100606.56;;;11.18;100.00
74529;BME280;63009;52.584;5.932;2023-08-31T02:07:02;100580.56;;;10.98;100.00
74529;BME280;63009;52.584;5.932;2023-08-31T02:09:28;100602.22;;;11.17;100.00
74529;BME280;63009;52.584;5.932;2023-08-31T02:11:53;100606.78;;;11.15;100.00
74529;BME280;63009;52.584;5.932;2023-08-31T02:14:18;100613.13;;;11.25;100.00
74529;BME280;63009;52.584;5.932;2023-08-31T02:16:43;100593.19;;;11.07;100.00
74529;BME280;63009;52.584;5.932;2023-08-31T02:19:09;100611.84;;;11.18;100.00
74529;BME280;63009;52.584;5.932;2023-08-31T02:21:35;100605.91;;;11.15;100.00
74529;BME280;63009;52.584;5.932;2023-08-31T02:24:00;100616.00;;;11.22;100.00
74529;BME280;63009;52.584;5.932;2023-08-31T02:26:25;100621.97;;;11.12;100.00
74529;BME280;63009;52.584;5.932;2023-08-31T02:28:50;100619.31;;;11.12;100.00
74529;BME280;63009;52.584;5.932;2023-08-31T02:31:16;100623.13;;;11.08;100.00
74529;BME280;63009;52.584;5.932;2023-08-31T02:33:42;100630.09;;;11.09;100.00
74529;BME280;63009;52.584;5.932;2023-08-31T02:36:07;100609.56;;;10.99;100.00
74529;BME280;63009;52.584;5.932;2023-08-31T02:38:32;100620.84;;;11.16;100.00
74529;BME280;63009;52.584;5.932;2023-08-31T02:40:57;100611.78;;;11.06;100.00
74529;BME280;63009;52.584;5.932;2023-08-31T02:43:23;100610.41;;;11.00;100.00
74529;BME280;63009;52.584;5.932;2023-08-31T02:45:49;100616.53;;;11.00;100.00
74529;BME280;63009;52.584;5.932;2023-08-31T02:48:14;100611.16;;;11.02;100.00
74529;BME280;63009;52.584;5.932;2023-08-31T02:50:39;100615.69;;;11.00;100.00
74529;BME280;63009;52.584;5.932;2023-08-31T02:53:05;100619.19;;;11.00;100.00
74529;BME280;63009;52.584;5.932;2023-08-31T02:55:32;100617.66;;;10.96;100.00
74529;BME280;63009;52.584;5.932;2023-08-31T02:57:57;100612.94;;;11.02;100.00
74529;BME280;63009;52.584;5.932;2023-08-31T03:00:23;100619.19;;;11.00;100.00
74529;BME280;63009;52.584;5.932;2023-08-31T03:02:49;100618.78;;;11.07;100.00
74529;BME280;63009;52.584;5.932;2023-08-31T03:05:17;100615.81;;;11.11;100.00
74529;BME280;63009;52.584;5.932;2023-08-31T03:07:42;100621.97;;;11.12;100.00
74529;BME280;63009;52.584;5.932;2023-08-31T03:10:08;100620.28;;;11.11;100.00
74529;BME280;63009;52.584;5.932;2023-08-31T03:12:33;100620.28;;;11.11;100.00
74529;BME280;63009;52.584;5.932;2023-08-31T03:14:58;100625.38;;;11.14;100.00
74529;BME280;63009;52.584;5.932;2023-08-31T03:17:24;100630.47;;;11.17;100.00
74529;BME280;63009;52.584;5.932;2023-08-31T03:19:49;100625.94;;;11.19;100.00
74529;BME280;63009;52.584;5.932;2023-08-31T03:22:14;100623.47;;;11.16;100.00
74529;BME280;63009;52.584;5.932;2023-08-31T03:24:39;100620.78;;;11.03;100.00
74529;BME280;63009;52.584;5.932;2023-08-31T03:27:05;100607.94;;;10.97;100.00
74529;BME280;63009;52.584;5.932;2023-08-31T03:29:30;100631.00;;;11.22;100.00
74529;BME280;63009;52.584;5.932;2023-08-31T03:31:57;100624.34;;;11.16;100.00
74529;BME280;63009;52.584;5.932;2023-08-31T03:34:23;100623.47;;;11.16;100.00
74529;BME280;63009;52.584;5.932;2023-08-31T03:36:48;100624.34;;;11.16;100.00
74529;BME280;63009;52.584;5.932;2023-08-31T03:39:14;100622.53;;;11.17;100.00
74529;BME280;63009;52.584;5.932;2023-08-31T03:41:39;100614.19;;;11.23;100.00
74529;BME280;63009;52.584;5.932;2023-08-31T03:44:05;100600.25;;;11.07;100.00
74529;BME280;63009;52.584;5.932;2023-08-31T03:46:30;100631.59;;;11.27;100.00
74529;BME280;63009;52.584;5.932;2023-08-31T03:48:55;100620.44;;;11.22;100.00
74529;BME280;63009;52.584;5.932;2023-08-31T03:51:21;100621.19;;;11.24;100.00
74529;BME280;63009;52.584;5.932;2023-08-31T03:53:46;100630.91;;;11.23;100.00
74529;BME280;63009;52.584;5.932;2023-08-31T03:56:11;100625.53;;;11.25;100.00
74529;BME280;63009;52.584;5.932;2023-08-31T03:58:37;100621.19;;;11.24;100.00
74529;BME280;63009;52.584;5.932;2023-08-31T04:01:02;100625.78;;;11.35;100.00
74529;BME280;63009;52.584;5.932;2023-08-31T04:03:28;100609.00;;;11.21;100.00
74529;BME280;63009;52.584;5.932;2023-08-31T04:05:54;100628.97;;;11.40;100.00
74529;BME280;63009;52.584;5.932;2023-08-31T04:08:20;100629.53;;;11.45;100.00
74529;BME280;63009;52.584;5.932;2023-08-31T04:10:45;100635.84;;;11.56;100.00
74529;BME280;63009;52.584;5.932;2023-08-31T04:13:10;100643.09;;;11.53;100.00
74529;BME280;63009;52.584;5.932;2023-08-31T04:15:36;100642.06;;;11.55;100.00
74529;BME280;63009;52.584;5.932;2023-08-31T04:18:01;100647.16;;;11.58;100.00
74529;BME280;63009;52.584;5.932;2023-08-31T04:20:26;100654.03;;;11.61;100.00
74529;BME280;63009;52.584;5.932;2023-08-31T04:22:51;100659.34;;;11.61;100.00
74529;BME280;63009;52.584;5.932;2023-08-31T04:25:17;100661.03;;;11.62;100.00
74529;BME280;63009;52.584;5.932;2023-08-31T04:27:42;100656.69;;;11.61;100.00
74529;BME280;63009;52.584;5.932;2023-08-31T04:30:08;100653.00;;;11.64;100.00
74529;BME280;63009;52.584;5.932;2023-08-31T04:32:33;100656.38;;;11.66;100.00
74529;BME280;63009;52.584;5.932;2023-08-31T04:34:59;100646.94;;;11.62;100.00
74529;BME280;63009;52.584;5.932;2023-08-31T04:37:24;100653.63;;;11.67;100.00
74529;BME280;63009;52.584;5.932;2023-08-31T04:39:49;100663.19;;;11.70;100.00
74529;BME280;63009;52.584;5.932;2023-08-31T04:42:14;100655.31;;;11.68;100.00
74529;BME280;63009;52.584;5.932;2023-08-31T04:44:42;100649.19;;;11.68;100.00
74529;BME280;63009;52.584;5.932;2023-08-31T04:47:07;100665.00;;;11.69;100.00
74529;BME280;63009;52.584;5.932;2023-08-31T04:49:32;100653.09;;;11.62;100.00
74529;BME280;63009;52.584;5.932;2023-08-31T04:51:57;100655.44;;;11.67;100.00
74529;BME280;63009;52.584;5.932;2023-08-31T04:54:23;100669.50;;;11.67;100.00
74529;BME280;63009;52.584;5.932;2023-08-31T04:56:48;100668.78;;;11.65;100.00
74529;BME280;63009;52.584;5.932;2023-08-31T04:59:13;100675.97;;;11.63;100.00
74529;BME280;63009;52.584;5.932;2023-08-31T05:01:39;100671.88;;;11.72;100.00
74529;BME280;63009;52.584;5.932;2023-08-31T05:04:04;100670.44;;;11.80;100.00
74529;BME280;63009;52.584;5.932;2023-08-31T05:06:30;100675.91;;;11.77;100.00
74529;BME280;63009;52.584;5.932;2023-08-31T05:08:55;100666.59;;;11.72;100.00
74529;BME280;63009;52.584;5.932;2023-08-31T05:11:21;100680.47;;;11.75;100.00
74529;BME280;63009;52.584;5.932;2023-08-31T05:13:47;100683.56;;;11.82;100.00
74529;BME280;63009;52.584;5.932;2023-08-31T05:16:12;100674.53;;;11.72;100.00
74529;BME280;63009;52.584;5.932;2023-08-31T05:18:38;100675.84;;;11.79;100.00
74529;BME280;63009;52.584;5.932;2023-08-31T05:21:03;100683.00;;;11.77;100.00
74529;BME280;63009;52.584;5.932;2023-08-31T05:23:29;100686.59;;;11.76;100.00
74529;BME280;63009;52.584;5.932;2023-08-31T05:25:55;100704.19;;;11.77;100.00
74529;BME280;63009;52.584;5.932;2023-08-31T05:28:22;100711.16;;;11.92;100.00
74529;BME280;63009;52.584;5.932;2023-08-31T05:30:54;100717.19;;;11.94;100.00
74529;BME280;63009;52.584;5.932;2023-08-31T05:33:20;100722.38;;;11.96;100.00
74529;BME280;63009;52.584;5.932;2023-08-31T05:35:47;100722.63;;;12.05;100.00
74529;BME280;63009;52.584;5.932;2023-08-31T05:38:12;100724.97;;;12.10;100.00
74529;BME280;63009;52.584;5.932;2023-08-31T05:40:38;100721.94;;;12.16;100.00
74529;BME280;63009;52.584;5.932;2023-08-31T05:43:03;100717.06;;;12.23;100.00
74529;BME280;63009;52.584;5.932;2023-08-31T05:45:33;100728.75;;;12.33;100.00
74529;BME280;63009;52.584;5.932;2023-08-31T05:47:58;100714.97;;;12.40;100.00
74529;BME280;63009;52.584;5.932;2023-08-31T05:50:23;100723.25;;;12.48;100.00
74529;BME280;63009;52.584;5.932;2023-08-31T05:52:48;100727.81;;;12.59;100.00
74529;BME280;63009;52.584;5.932;2023-08-31T05:55:14;100738.94;;;12.64;100.00
74529;BME280;63009;52.584;5.932;2023-08-31T05:57:39;100733.88;;;12.74;100.00
74529;BME280;63009;52.584;5.932;2023-08-31T06:00:05;100746.41;;;12.85;100.00
74529;BME280;63009;52.584;5.932;2023-08-31T06:02:32;100737.47;;;12.86;100.00
74529;BME280;63009;52.584;5.932;2023-08-31T06:04:57;100750.09;;;12.95;100.00
74529;BME280;63009;52.584;5.932;2023-08-31T06:07:23;100747.44;;;12.95;100.00
74529;BME280;63009;52.584;5.932;2023-08-31T06:09:48;100753.81;;;13.05;100.00
74529;BME280;63009;52.584;5.932;2023-08-31T06:12:13;100749.22;;;13.07;100.00
74529;BME280;63009;52.584;5.932;2023-08-31T06:14:39;100759.53;;;13.12;100.00
74529;BME280;63009;52.584;5.932;2023-08-31T06:17:04;100755.31;;;13.09;100.00
74529;BME280;63009;52.584;5.932;2023-08-31T06:19:29;100765.91;;;13.09;100.00
74529;BME280;63009;52.584;5.932;2023-08-31T06:21:54;100766.88;;;13.21;100.00
74529;BME280;63009;52.584;5.932;2023-08-31T06:24:20;100763.88;;;13.38;100.00
74529;BME280;63009;52.584;5.932;2023-08-31T06:26:45;100773.69;;;13.61;100.00
74529;BME280;63009;52.584;5.932;2023-08-31T06:29:10;100756.97;;;13.72;100.00
74529;BME280;63009;52.584;5.932;2023-08-31T06:31:36;100751.38;;;13.64;100.00
74529;BME280;63009;52.584;5.932;2023-08-31T06:34:02;100774.47;;;13.87;100.00
74529;BME280;63009;52.584;5.932;2023-08-31T06:36:28;100788.03;;;13.95;100.00
74529;BME280;63009;52.584;5.932;2023-08-31T06:38:54;100775.91;;;13.91;100.00
74529;BME280;63009;52.584;5.932;2023-08-31T06:41:19;100787.34;;;14.05;100.00
74529;BME280;63009;52.584;5.932;2023-08-31T06:43:44;100781.84;;;14.19;100.00
74529;BME280;63009;52.584;5.932;2023-08-31T06:46:11;100789.66;;;14.33;100.00
74529;BME280;63009;52.584;5.932;2023-08-31T06:48:36;100792.28;;;14.46;100.00
74529;BME280;63009;52.584;5.932;2023-08-31T06:51:01;100794.28;;;14.66;100.00
74529;BME280;63009;52.584;5.932;2023-08-31T06:53:28;100778.00;;;14.82;100.00
74529;BME280;63009;52.584;5.932;2023-08-31T06:55:54;100798.09;;;15.20;100.00
74529;BME280;63009;52.584;5.932;2023-08-31T06:58:19;100790.84;;;15.44;100.00
74529;BME280;63009;52.584;5.932;2023-08-31T07:00:45;100793.63;;;15.76;100.00
74529;BME280;63009;52.584;5.932;2023-08-31T07:03:11;100796.53;;;15.73;100.00
74529;BME280;63009;52.584;5.932;2023-08-31T07:05:41;100790.84;;;15.55;100.00
74529;BME280;63009;52.584;5.932;2023-08-31T07:08:07;100804.66;;;15.83;100.00
74529;BME280;63009;52.584;5.932;2023-08-31T07:10:33;100804.31;;;16.19;100.00
74529;BME280;63009;52.584;5.932;2023-08-31T07:13:01;100804.56;;;16.48;100.00
74529;BME280;63009;52.584;5.932;2023-08-31T07:15:27;100803.41;;;16.62;100.00
74529;BME280;63009;52.584;5.932;2023-08-31T07:17:52;100817.72;;;17.03;100.00
74529;BME280;63009;52.584;5.932;2023-08-31T07:20:17;100819.56;;;17.23;98.78
74529;BME280;63009;52.584;5.932;2023-08-31T07:22:42;100819.91;;;17.39;98.52
74529;BME280;63009;52.584;5.932;2023-08-31T07:25:08;100820.47;;;17.73;97.69
74529;BME280;63009;52.584;5.932;2023-08-31T07:27:33;100820.69;;;17.91;93.88
74529;BME280;63009;52.584;5.932;2023-08-31T07:29:58;100835.22;;;18.08;93.64
74529;BME280;63009;52.584;5.932;2023-08-31T07:32:24;100833.81;;;18.04;92.67
74529;BME280;63009;52.584;5.932;2023-08-31T07:34:49;100823.09;;;18.04;92.07
74529;BME280;63009;52.584;5.932;2023-08-31T07:37:14;100826.69;;;17.84;93.15
74529;BME280;63009;52.584;5.932;2023-08-31T07:39:39;100829.88;;;18.08;93.84
74529;BME280;63009;52.584;5.932;2023-08-31T07:42:05;100825.34;;;18.08;92.77
74529;BME280;63009;52.584;5.932;2023-08-31T07:44:30;100833.78;;;17.94;91.66
74529;BME280;63009;52.584;5.932;2023-08-31T07:46:56;100836.56;;;17.83;93.00
74529;BME280;63009;52.584;5.932;2023-08-31T07:49:21;100836.78;;;17.70;93.24
74529;BME280;63009;52.584;5.932;2023-08-31T07:51:46;100832.91;;;17.54;93.46
74529;BME280;63009;52.584;5.932;2023-08-31T07:54:19;100833.88;;;17.52;95.14
74529;BME280;63009;52.584;5.932;2023-08-31T07:56:44;100835.56;;;17.54;95.40
74529;BME280;63009;52.584;5.932;2023-08-31T07:59:10;100840.28;;;17.40;94.74
74529;BME280;63009;52.584;5.932;2023-08-31T08:01:35;100843.59;;;17.23;95.75
74529;BME280;63009;52.584;5.932;2023-08-31T08:04:01;100851.06;;;17.29;96.84
74529;BME280;63009;52.584;5.932;2023-08-31T08:06:26;100848.44;;;17.39;96.77
74529;BME280;63009;52.584;5.932;2023-08-31T08:08:51;100851.53;;;17.34;97.38
74529;BME280;63009;52.584;5.932;2023-08-31T08:11:16;100853.56;;;17.21;96.66
74529;BME280;63009;52.584;5.932;2023-08-31T08:13:42;100860.72;;;17.20;97.10
74529;BME280;63009;52.584;5.932;2023-08-31T08:16:07;100866.81;;;17.53;97.48
74529;BME280;63009;52.584;5.932;2023-08-31T08:18:34;100866.09;;;17.82;96.85
74529;BME280;63009;52.584;5.932;2023-08-31T08:20:59;100851.81;;;17.62;92.52
74529;BME280;63009;52.584;5.932;2023-08-31T08:23:24;100877.13;;;17.88;94.44
74529;BME280;63009;52.584;5.932;2023-08-31T08:25:49;100867.72;;;18.03;92.86
74529;BME280;63009;52.584;5.932;2023-08-31T08:28:15;100865.28;;;17.91;93.25
74529;BME280;63009;52.584;5.932;2023-08-31T08:30:40;100868.78;;;17.82;92.50
74529;BME280;63009;52.584;5.932;2023-08-31T08:33:05;100884.16;;;17.99;93.67
74529;BME280;63009;52.584;5.932;2023-08-31T08:35:31;100882.09;;;18.02;93.56
74529;BME280;63009;52.584;5.932;2023-08-31T08:37:56;100878.56;;;18.12;95.49
74529;BME280;63009;52.584;5.932;2023-08-31T08:40:21;100882.44;;;18.38;91.21
74529;BME280;63009;52.584;5.932;2023-08-31T08:42:47;100879.81;;;18.77;90.08
74529;BME280;63009;52.584;5.932;2023-08-31T08:45:14;100870.63;;;18.98;90.43
74529;BME280;63009;52.584;5.932;2023-08-31T08:47:43;100883.84;;;19.29;90.20
74529;BME280;63009;52.584;5.932;2023-08-31T08:50:10;100865.28;;;19.55;89.56
74529;BME280;63009;52.584;5.932;2023-08-31T08:52:36;100883.72;;;19.68;84.49
74529;BME280;63009;52.584;5.932;2023-08-31T08:55:02;100885.00;;;19.73;85.44
74529;BME280;63009;52.584;5.932;2023-08-31T08:57:28;100878.94;;;19.71;85.88
74529;BME280;63009;52.584;5.932;2023-08-31T08:59:53;100898.25;;;20.02;83.24
74529;BME280;63009;52.584;5.932;2023-08-31T09:02:18;100885.03;;;19.91;81.69
74529;BME280;63009;52.584;5.932;2023-08-31T09:04:44;100891.75;;;20.05;81.09
74529;BME280;63009;52.584;5.932;2023-08-31T09:07:09;100888.94;;;20.24;82.25
74529;BME280;63009;52.584;5.932;2023-08-31T09:09:52;100883.94;;;20.11;80.03
74529;BME280;63009;52.584;5.932;2023-08-31T09:12:18;100900.03;;;20.11;81.47
74529;BME280;63009;52.584;5.932;2023-08-31T09:14:43;100902.34;;;20.06;82.40
74529;BME280;63009;52.584;5.932;2023-08-31T09:17:23;100882.56;;;20.25;81.92
74529;BME280;63009;52.584;5.932;2023-08-31T09:19:58;100903.03;;;20.54;80.93
74529;BME280;63009;52.584;5.932;2023-08-31T09:22:23;100921.09;;;20.79;78.43
74529;BME280;63009;52.584;5.932;2023-08-31T09:24:49;100913.34;;;20.76;77.93
74529;BME280;63009;52.584;5.932;2023-08-31T09:27:14;100912.41;;;20.67;78.46
74529;BME280;63009;52.584;5.932;2023-08-31T09:29:45;100909.81;;;20.58;76.78
74529;BME280;63009;52.584;5.932;2023-08-31T09:32:16;100907.34;;;20.64;76.84
74529;BME280;63009;52.584;5.932;2023-08-31T09:34:41;100892.69;;;20.41;76.25
74529;BME280;63009;52.584;5.932;2023-08-31T09:37:08;100901.38;;;20.25;77.30
74529;BME280;63009;52.584;5.932;2023-08-31T09:39:39;100905.16;;;20.05;77.79
74529;BME280;63009;52.584;5.932;2023-08-31T09:42:04;100910.41;;;19.97;78.31
74529;BME280;63009;52.584;5.932;2023-08-31T09:44:30;100911.22;;;19.79;80.38
74529;BME280;63009;52.584;5.932;2023-08-31T09:46:55;100911.53;;;19.67;80.73
74529;BME280;63009;52.584;5.932;2023-08-31T09:49:21;100916.06;;;19.66;81.87
74529;BME280;63009;52.584;5.932;2023-08-31T09:51:49;100915.81;;;19.40;80.79
74529;BME280;63009;52.584;5.932;2023-08-31T09:54:19;100905.38;;;19.56;80.30
74529;BME280;63009;52.584;5.932;2023-08-31T09:56:47;100896.88;;;19.61;80.69
74529;BME280;63009;52.584;5.932;2023-08-31T09:59:14;100902.94;;;19.53;80.44
74529;BME280;63009;52.584;5.932;2023-08-31T10:01:40;100905.78;;;19.62;81.65
74529;BME280;63009;52.584;5.932;2023-08-31T10:04:07;100918.78;;;19.47;81.44
74529;BME280;63009;52.584;5.932;2023-08-31T10:06:34;100919.13;;;19.15;81.81
74529;BME280;63009;52.584;5.932;2023-08-31T10:09:01;100942.97;;;18.89;83.43
74529;BME280;63009;52.584;5.932;2023-08-31T10:11:28;100946.50;;;18.30;86.88
74529;BME280;63009;52.584;5.932;2023-08-31T10:13:54;100933.84;;;17.92;88.21
74529;BME280;63009;52.584;5.932;2023-08-31T10:16:21;100920.75;;;17.89;90.61
74529;BME280;63009;52.584;5.932;2023-08-31T10:18:47;100929.78;;;17.97;94.82
74529;BME280;63009;52.584;5.932;2023-08-31T10:21:16;100934.31;;;18.06;91.56
74529;BME280;63009;52.584;5.932;2023-08-31T10:23:45;100927.31;;;18.25;94.98
74529;BME280;63009;52.584;5.932;2023-08-31T10:26:11;100927.66;;;18.51;96.09
74529;BME280;63009;52.584;5.932;2023-08-31T10:28:41;100930.13;;;18.83;93.48
74529;BME280;63009;52.584;5.932;2023-08-31T10:31:15;100909.53;;;19.03;90.60
74529;BME280;63009;52.584;5.932;2023-08-31T10:33:42;100923.59;;;19.43;90.06
74529;BME280;63009;52.584;5.932;2023-08-31T10:36:18;100920.00;;;19.72;85.12
74529;BME280;63009;52.584;5.932;2023-08-31T10:38:46;100925.44;;;19.90;82.53
74529;BME280;63009;52.584;5.932;2023-08-31T10:43:44;100931.88;;;19.97;82.91
74529;BME280;63009;52.584;5.932;2023-08-31T10:46:32;100919.25;;;19.79;80.50
74529;BME280;63009;52.584;5.932;2023-08-31T10:49:00;100916.75;;;19.68;82.66
74529;BME280;63009;52.584;5.932;2023-08-31T10:51:30;100926.38;;;19.61;83.99
74529;BME280;63009;52.584;5.932;2023-08-31T10:54:12;100934.44;;;19.42;81.50
74529;BME280;63009;52.584;5.932;2023-08-31T10:59:24;100933.06;;;18.70;87.77
74529;BME280;63009;52.584;5.932;2023-08-31T11:01:55;100936.81;;;18.58;90.13
74529;BME280;63009;52.584;5.932;2023-08-31T11:04:22;100947.91;;;18.34;89.53
74529;BME280;63009;52.584;5.932;2023-08-31T11:06:48;100935.56;;;18.02;86.33
74529;BME280;63009;52.584;5.932;2023-08-31T11:09:20;100946.78;;;17.96;88.72
74529;BME280;63009;52.584;5.932;2023-08-31T11:11:46;100954.34;;;17.82;87.95
74529;BME280;63009;52.584;5.932;2023-08-31T11:14:12;100958.69;;;17.83;88.74
74529;BME280;63009;52.584;5.932;2023-08-31T11:16:38;100958.63;;;17.73;90.86
74529;BME280;63009;52.584;5.932;2023-08-31T11:19:04;100946.66;;;17.46;94.27
74529;BME280;63009;52.584;5.932;2023-08-31T11:21:30;100957.53;;;17.55;96.04
74529;BME280;63009;52.584;5.932;2023-08-31T11:23:56;100947.88;;;17.42;96.99
74529;BME280;63009;52.584;5.932;2023-08-31T11:26:25;100944.81;;;17.26;96.94
74529;BME280;63009;52.584;5.932;2023-08-31T11:28:50;100949.00;;;17.19;95.34
74529;BME280;63009;52.584;5.932;2023-08-31T11:31:23;100945.66;;;17.27;97.25
74529;BME280;63009;52.584;5.932;2023-08-31T11:33:49;100942.03;;;17.48;100.00
74529;BME280;63009;52.584;5.932;2023-08-31T11:36:14;100933.50;;;17.75;100.00
74529;BME280;63009;52.584;5.932;2023-08-31T11:38:42;100953.19;;;18.15;100.00
74529;BME280;63009;52.584;5.932;2023-08-31T11:41:07;100934.97;;;18.39;98.49
74529;BME280;63009;52.584;5.932;2023-08-31T11:43:32;100951.66;;;18.72;94.38
74529;BME280;63009;52.584;5.932;2023-08-31T11:45:58;100942.97;;;18.89;90.05
74529;BME280;63009;52.584;5.932;2023-08-31T11:48:24;100944.50;;;19.11;88.41
74529;BME280;63009;52.584;5.932;2023-08-31T11:50:50;100951.25;;;19.24;90.94
74529;BME280;63009;52.584;5.932;2023-08-31T11:53:18;100953.94;;;19.34;87.63
74529;BME280;63009;52.584;5.932;2023-08-31T11:55:50;100945.44;;;19.58;91.53
74529;BME280;63009;52.584;5.932;2023-08-31T11:58:16;100951.81;;;19.57;84.07
74529;BME280;63009;52.584;5.932;2023-08-31T12:00:43;100956.59;;;19.44;81.99
74529;BME280;63009;52.584;5.932;2023-08-31T12:03:08;100970.16;;;19.33;84.34
74529;BME280;63009;52.584;5.932;2023-08-31T12:05:47;100966.22;;;19.08;82.63
74529;BME280;63009;52.584;5.932;2023-08-31T12:08:15;100964.38;;;18.98;82.23
74529;BME280;63009;52.584;5.932;2023-08-31T12:10:41;100970.84;;;19.25;84.48
74529;BME280;63009;52.584;5.932;2023-08-31T12:13:11;100967.47;;;19.23;82.28
74529;BME280;63009;52.584;5.932;2023-08-31T12:15:36;100980.44;;;19.27;84.74
74529;BME280;63009;52.584;5.932;2023-08-31T12:18:12;100981.72;;;19.43;84.34
74529;BME280;63009;52.584;5.932;2023-08-31T12:20:48;100976.22;;;19.44;83.54
74529;BME280;63009;52.584;5.932;2023-08-31T12:23:16;100975.09;;;19.56;83.95
74529;BME280;63009;52.584;5.932;2023-08-31T12:25:49;100976.75;;;19.67;83.38
74529;BME280;63009;52.584;5.932;2023-08-31T12:28:14;100983.31;;;19.82;81.43
74529;BME280;63009;52.584;5.932;2023-08-31T12:30:42;100978.09;;;19.91;82.14
74529;BME280;63009;52.584;5.932;2023-08-31T12:33:09;100982.50;;;20.19;80.19
74529;BME280;63009;52.584;5.932;2023-08-31T12:35:35;100962.50;;;20.04;79.63
74529;BME280;63009;52.584;5.932;2023-08-31T12:38:00;100979.00;;;20.09;79.18
74529;BME280;63009;52.584;5.932;2023-08-31T12:40:25;100989.03;;;20.07;79.75
74529;BME280;63009;52.584;5.932;2023-08-31T12:42:50;100986.22;;;20.08;79.03
74529;BME280;63009;52.584;5.932;2023-08-31T12:45:16;100998.94;;;19.97;81.65